CheckWX is a tool to help pilots better visualize weather data.  It is not intended as a substitute for an official pre-flight weather briefing.

12:56:31 UTC

EGUL METAR
RAF Lakenheath Airport
Lakenheath, United Kingdom
Current

1 hour ago

EGUL 181156Z AUTO 22012KT 9999 CLR 11/06 A2992 RMK AO2 SLP135 T01070063 10107 20067 57009 $
Observed
Feb-18 @ 11:56 UTC
Wind
  • 220° at 12 KTS
Visibility
10,000+ meters
Flight Rules
VFR
Cloud Levels
  • Clear skies
Temperature
11°C / 52°F
Dewpoint
C / 43°F
Humidity
72%
Altimeter
29.92" Hg
Pressure
1013.5 hPa
Previous

2 hours ago

EGUL 181056Z AUTO 22015KT 9999 SCT070 11/07 A2993 RMK AO2 SLP139 T01050068 $
Observed
Feb-18 @ 10:56 UTC
Wind
  • 220° at 15 KTS
Visibility
10,000+ meters
Flight Rules
VFR
Cloud Levels
  • Scattered at 7,000' AGL
Temperature
11°C / 52°F
Dewpoint
C / 45°F
Humidity
77%
Altimeter
29.93" Hg
Pressure
1013.9 hPa
Previous

3 hours ago

EGUL 180956Z AUTO 20011KT 9999 CLR 09/07 A2994 RMK AO2 SLP142 T00890065 $
Observed
Feb-18 @ 09:56 UTC
Wind
  • 200° at 11 KTS
Visibility
10,000+ meters
Flight Rules
VFR
Cloud Levels
  • Clear skies
Temperature
C / 48°F
Dewpoint
C / 45°F
Humidity
87%
Altimeter
29.94" Hg
Pressure
1014.2 hPa